createdAt,value
2019-02-12T00:03:46.428Z,18.85
2019-02-12T00:08:52.114Z,19.25
2019-02-12T00:13:57.717Z,15.80
2019-02-12T00:19:03.423Z,11.15
2019-02-12T00:24:09.105Z,15.15
2019-02-12T00:29:14.734Z,18.07
2019-02-12T00:34:20.523Z,16.37
2019-02-12T00:39:26.140Z,18.17
2019-02-12T00:44:31.760Z,22.75
2019-02-12T00:49:37.436Z,19.10
2019-02-12T00:54:43.120Z,20.55
2019-02-12T00:59:48.794Z,19.17
2019-02-12T01:04:54.409Z,14.55
2019-02-12T01:10:00.099Z,15.23
2019-02-12T01:15:07.014Z,17.32
2019-02-12T01:20:13.519Z,18.85
2019-02-12T01:25:19.180Z,15.80
2019-02-12T01:30:24.868Z,11.37
2019-02-12T01:35:30.504Z,6.90
2019-02-12T01:40:36.172Z,7.10
2019-02-12T01:45:41.906Z,12.30
2019-02-12T01:50:47.511Z,9.10
2019-02-12T01:55:53.236Z,15.48
2019-02-12T02:00:58.910Z,19.60
2019-02-12T02:06:04.581Z,13.22
2019-02-12T02:11:10.192Z,11.47
2019-02-12T02:16:15.907Z,10.27
2019-02-12T02:21:21.512Z,11.57
2019-02-12T02:26:27.167Z,7.13
2019-02-12T02:31:32.851Z,6.83
2019-02-12T02:36:38.565Z,6.40
2019-02-12T02:41:44.231Z,4.37
2019-02-12T02:46:49.894Z,5.20
2019-02-12T02:51:55.557Z,7.27
2019-02-12T02:57:01.222Z,5.57
2019-02-12T03:02:06.893Z,7.03
2019-02-12T03:07:12.759Z,5.57
2019-02-12T03:12:18.425Z,10.33
2019-02-12T03:17:24.064Z,8.73
2019-02-12T03:22:29.655Z,6.70
2019-02-12T03:27:35.263Z,12.13
2019-02-12T03:32:41.079Z,10.87
2019-02-12T03:37:46.927Z,7.13
2019-02-12T03:42:52.611Z,8.07
2019-02-12T03:47:58.234Z,11.53
2019-02-12T03:53:03.899Z,13.43
2019-02-12T03:58:09.572Z,10.23
2019-02-12T04:03:15.298Z,8.70
2019-02-12T04:08:20.975Z,7.83
2019-02-12T04:13:26.644Z,8.93
2019-02-12T04:18:32.251Z,9.47
2019-02-12T04:23:38.015Z,15.53
2019-02-12T04:28:43.617Z,15.47
2019-02-12T04:33:49.326Z,21.07
2019-02-12T04:38:55.176Z,6.53
2019-02-12T04:44:00.937Z,4.27
2019-02-12T04:49:06.607Z,3.90
2019-02-12T04:54:12.281Z,4.47
2019-02-12T04:59:17.966Z,4.40
2019-02-12T05:04:23.796Z,7.67
2019-02-12T05:09:29.912Z,8.13
2019-02-12T11:44:17.729Z,2.47
2019-02-12T11:49:23.539Z,3.60
2019-02-12T11:54:29.365Z,2.40
2019-02-12T11:59:35.037Z,2.75
2019-02-12T12:04:41.252Z,4.25
2019-02-12T12:09:47.360Z,2.83
2019-02-12T12:14:53.357Z,9.48
2019-02-12T12:19:59.491Z,2.72
2019-02-12T12:25:05.923Z,2.67
2019-02-12T12:30:12.405Z,3.45
2019-02-12T12:35:18.694Z,4.55
2019-02-12T12:40:24.891Z,3.77
2019-02-12T12:45:31.036Z,3.85
2019-02-12T12:50:37.155Z,3.52
2019-02-12T12:55:43.000Z,4.15
2019-02-12T13:00:49.323Z,6.62
2019-02-12T13:05:55.343Z,4.75
2019-02-12T13:11:01.334Z,4.75
2019-02-12T13:16:07.395Z,3.80
2019-02-12T13:21:13.270Z,4.08
2019-02-12T13:26:19.383Z,3.98
2019-02-12T13:31:25.317Z,4.08
2019-02-12T13:36:31.324Z,3.52
2019-02-12T13:41:37.803Z,66.00
2019-02-12T13:46:43.959Z,3.40
2019-02-12T13:51:50.148Z,3.67
2019-02-12T13:56:56.104Z,4.42
2019-02-12T14:02:03.392Z,4.50
2019-02-12T14:07:09.885Z,4.80
2019-02-12T14:12:15.973Z,3.17
2019-02-12T14:17:22.146Z,3.40
2019-02-12T14:22:28.291Z,2.70
2019-02-12T14:27:34.430Z,3.50
2019-02-12T14:32:40.808Z,3.40
2019-02-12T14:37:46.765Z,3.35
2019-02-12T14:42:52.934Z,2.83
2019-02-12T14:47:58.993Z,2.52
2019-02-12T14:53:05.232Z,2.77
2019-02-12T14:58:11.474Z,2.95
2019-02-12T15:03:17.538Z,2.67
2019-02-12T15:08:23.616Z,3.42
2019-02-12T15:13:29.583Z,2.30
2019-02-12T15:18:35.678Z,2.37
2019-02-12T15:23:41.535Z,2.67
2019-02-12T15:28:47.502Z,2.20
2019-02-12T15:33:53.237Z,2.55
2019-02-12T15:38:58.937Z,2.55
2019-02-12T15:44:04.817Z,2.27
2019-02-12T15:49:10.576Z,2.95
2019-02-12T15:54:16.179Z,2.45
2019-02-12T15:59:22.068Z,3.00
2019-02-12T16:04:27.826Z,3.33
2019-02-12T16:09:35.036Z,3.98
2019-02-12T16:14:42.107Z,3.95
2019-02-12T16:19:49.131Z,4.35
2019-02-12T16:24:55.193Z,5.08
2019-02-12T16:30:01.530Z,5.10
2019-02-12T16:35:08.778Z,3.45
2019-02-12T16:40:15.028Z,2.50
2019-02-12T16:45:25.196Z,2.70
2019-02-12T16:50:31.068Z,3.42
2019-02-12T16:55:37.148Z,3.10
2019-02-12T17:00:43.113Z,2.95
2019-02-12T17:05:49.008Z,5.25
2019-02-12T17:10:54.657Z,9.60
2019-02-12T17:16:00.721Z,6.03
2019-02-12T17:21:06.382Z,7.90
2019-02-12T17:26:16.421Z,5.10
2019-02-12T17:31:19.620Z,5.35
2019-02-12T17:36:25.252Z,3.80
2019-02-12T17:41:30.908Z,3.70
2019-02-12T17:46:36.586Z,2.90
2019-02-12T17:51:42.185Z,2.98
2019-02-12T17:56:47.792Z,7.35
2019-02-12T18:01:53.412Z,6.47
2019-02-12T18:06:59.055Z,6.20
2019-02-12T18:12:04.866Z,9.78
2019-02-12T18:17:10.494Z,13.53
2019-02-12T18:22:16.144Z,15.58
2019-02-12T18:27:21.793Z,11.85
2019-02-12T18:32:27.941Z,19.23
2019-02-12T18:37:33.569Z,23.40
2019-02-12T18:42:39.300Z,17.48
2019-02-12T18:47:45.074Z,11.25
2019-02-12T18:52:51.015Z,22.87
2019-02-12T18:57:56.783Z,31.50
2019-02-12T19:03:02.537Z,35.58
2019-02-12T19:08:08.508Z,28.35
2019-02-12T19:13:14.180Z,25.15
2019-02-12T19:18:22.816Z,25.37
2019-02-12T19:23:28.423Z,31.75
2019-02-12T19:28:34.082Z,35.00
2019-02-12T19:33:39.926Z,27.75
2019-02-12T19:38:48.533Z,29.50
2019-02-12T19:43:54.256Z,24.52
2019-02-12T19:48:59.868Z,20.15
2019-02-12T19:54:05.489Z,19.32
2019-02-12T19:59:11.164Z,15.60
2019-02-12T20:04:16.942Z,14.05
2019-02-12T20:09:23.112Z,17.45
2019-02-12T20:14:29.190Z,20.88
2019-02-12T20:19:34.792Z,21.37
2019-02-12T20:24:40.468Z,32.05
2019-02-12T20:29:46.090Z,26.00
2019-02-12T20:34:51.815Z,24.00
2019-02-12T20:39:57.516Z,23.45
2019-02-12T20:45:03.149Z,17.90
2019-02-12T20:50:10.180Z,16.40
2019-02-12T20:55:15.933Z,15.78
2019-02-12T21:00:21.803Z,14.33
2019-02-12T21:05:27.407Z,22.55
2019-02-12T21:10:33.033Z,18.67
2019-02-12T21:15:38.796Z,19.00
2019-02-12T21:20:44.462Z,21.40
2019-02-12T21:25:50.059Z,22.70
2019-02-12T21:30:56.684Z,22.10
2019-02-12T21:36:02.467Z,21.87
2019-02-12T21:41:08.365Z,21.12
2019-02-12T21:46:14.012Z,21.93
2019-02-12T21:51:19.789Z,24.57
2019-02-12T21:56:25.634Z,21.82
2019-02-12T22:01:31.302Z,25.08
2019-02-12T22:06:37.116Z,26.57
2019-02-12T22:11:42.827Z,35.00
2019-02-12T22:16:48.455Z,27.98
2019-02-12T22:21:54.100Z,27.40
2019-02-12T22:26:59.837Z,28.42
2019-02-12T22:32:05.441Z,29.18
2019-02-12T22:37:11.171Z,28.70
2019-02-12T22:42:16.875Z,30.45
2019-02-12T22:47:22.478Z,26.95
2019-02-12T22:52:28.161Z,81.50
2019-02-12T22:57:33.836Z,89.90
2019-02-12T23:02:39.700Z,76.47
2019-02-12T23:07:45.339Z,66.40
2019-02-12T23:12:51.035Z,59.53
2019-02-12T23:17:56.650Z,27.25
2019-02-12T23:23:02.372Z,33.90
2019-02-12T23:28:07.983Z,29.15
2019-02-12T23:33:13.688Z,33.18
2019-02-12T23:38:19.388Z,47.23
2019-02-12T23:43:25.019Z,34.67
2019-02-12T23:48:30.691Z,42.63
2019-02-12T23:53:36.307Z,32.37
2019-02-12T23:58:42.008Z,24.90
